Time;durP1;ratioP1;P1;durP2;ratioP2;P2;SDS_P1;SDS_P2;PMS_P1;PMS_P2;Temp;Humidity;BMP_temperature;BMP_pressure;BME280_temperature;BME280_humidity;BME280_pressure;Samples;Min_cycle;Max_cycle;Signal;HPM_P1;HPM_P2
2022/12/13 10:25:07;;;;;;;11.02;6.00;;;6.60;99.90;;;;;;5601255;23;20282;-64
2022/12/13 10:27:41;;;;;;;7.75;5.07;;;6.70;99.90;;;;;;4970878;28;20022;-64
2022/12/13 10:30:20;;;;;;;8.45;5.50;;;6.60;99.90;;;;;;4973344;28;20484;-64
2022/12/13 10:32:55;;;;;;;8.30;5.35;;;6.60;99.90;;;;;;4972907;28;20039;-64
2022/12/13 10:35:21;;;;;;;5.97;4.13;;;6.50;99.90;;;;;;4971764;28;20019;-65
2022/12/13 10:37:47;;;;;;;5.38;3.97;;;6.50;99.90;;;;;;4973397;28;20046;-65
2022/12/13 10:40:47;;;;;;;7.47;4.53;;;6.50;99.90;;;;;;4972984;28;20035;-64
2022/12/13 10:43:22;;;;;;;10.63;5.70;;;6.60;99.90;;;;;;4965630;28;20046;-63
2022/12/13 10:45:58;;;;;;;7.00;4.80;;;6.80;99.90;;;;;;4973602;28;20046;-63
2022/12/13 10:48:38;;;;;;;7.35;5.70;;;6.80;99.90;;;;;;4973365;28;20023;-63
2022/12/13 10:51:15;;;;;;;9.07;4.60;;;6.90;99.90;;;;;;4973315;28;20034;-63
2022/12/13 10:53:53;;;;;;;8.30;3.40;;;6.90;99.90;;;;;;4973515;28;20031;-65
2022/12/13 10:56:21;;;;;;;5.45;3.50;;;6.90;99.90;;;;;;4972924;28;20034;-63
2022/12/13 10:58:50;;;;;;;7.32;3.65;;;6.80;99.90;;;;;;4972695;28;20367;-62
2022/12/13 11:01:19;;;;;;;9.43;4.60;;;6.70;99.90;;;;;;4972030;28;20046;-64
2022/12/13 11:04:28;;;;;;;9.00;3.83;;;6.70;99.90;;;;;;4973310;28;20027;-63
2022/12/13 11:06:55;;;;;;;10.18;5.72;;;6.80;99.90;;;;;;4973288;28;20039;-64
2022/12/13 11:09:31;;;;;;;9.73;5.32;;;6.70;99.90;;;;;;4971988;28;20499;-63
2022/12/13 11:12:01;;;;;;;12.75;7.90;;;6.90;99.90;;;;;;4971919;28;20062;-63
2022/12/13 11:14:33;;;;;;;9.15;5.30;;;7.00;99.90;;;;;;4973365;28;20503;-64
2022/12/13 11:17:18;;;;;;;8.60;5.07;;;7.00;99.90;;;;;;4973198;28;20034;-65
2022/12/13 11:19:47;;;;;;;12.77;6.10;;;6.80;99.90;;;;;;4973082;28;20039;-63
2022/12/13 11:22:29;;;;;;;9.43;5.95;;;6.90;99.90;;;;;;4972922;28;20054;-63
2022/12/13 11:25:17;;;;;;;11.63;5.50;;;7.00;99.90;;;;;;4972453;28;20070;-64
2022/12/13 11:28:06;;;;;;;9.50;6.25;;;6.70;99.90;;;;;;4979335;28;20479;-64
2022/12/13 11:30:43;;;;;;;12.25;6.45;;;6.80;99.90;;;;;;4995495;28;20030;-63
2022/12/13 11:33:47;;;;;;;10.93;6.78;;;6.80;99.90;;;;;;4996090;28;20049;-65
2022/12/13 11:37:00;;;;;;;11.40;6.88;;;6.90;99.90;;;;;;4995635;28;20030;-64
2022/12/13 11:39:44;;;;;;;11.95;6.88;;;6.90;99.90;;;;;;4995614;28;20697;-64
2022/12/13 11:42:43;;;;;;;13.02;8.30;;;6.80;99.90;;;;;;4995952;28;20025;-64
2022/12/13 11:45:30;;;;;;;16.90;7.80;;;7.00;99.90;;;;;;4995488;28;20519;-65
2022/12/13 11:48:07;;;;;;;16.77;8.10;;;7.00;99.90;;;;;;4995765;28;20104;-68
2022/12/13 11:50:43;;;;;;;11.77;8.13;;;7.10;99.90;;;;;;4995070;28;20153;-66
2022/12/13 11:53:26;;;;;;;14.93;8.48;;;7.10;99.90;;;;;;4995217;28;20445;-66
2022/12/13 11:56:25;;;;;;;11.35;7.57;;;7.20;99.90;;;;;;4995306;28;20023;-65
2022/12/13 11:59:19;;;;;;;12.60;7.28;;;7.20;99.90;;;;;;4995879;28;20034;-66
2022/12/13 12:01:58;;;;;;;;;;;7.30;99.90;;;;;;4985524;28;20021;-65
2022/12/13 12:04:51;;;;;;;14.07;7.97;;;7.40;99.90;;;;;;4976437;28;19912;-65
2022/12/13 12:07:20;;;;;;;11.68;7.75;;;7.60;99.90;;;;;;4975854;28;20027;-66
2022/12/13 12:09:57;;;;;;;12.50;8.05;;;7.50;99.90;;;;;;4975709;28;20106;-66
2022/12/13 12:12:36;;;;;;;10.85;8.27;;;7.40;99.90;;;;;;4976221;28;20498;-65
2022/12/13 12:16:06;;;;;;;9.32;7.25;;;7.50;99.90;;;;;;4976107;28;20011;-65
2022/12/13 12:18:32;;;;;;;10.60;7.80;;;7.50;99.90;;;;;;4878887;29;20447;-65
2022/12/13 12:21:25;;;;;;;13.52;8.35;;;7.60;99.90;;;;;;4878812;29;20041;-65
2022/12/13 12:24:24;;;;;;;10.20;8.07;;;7.80;99.90;;;;;;4878141;29;20068;-65
2022/12/13 12:27:08;;;;;;;13.93;10.95;;;7.80;99.90;;;;;;4878533;29;20056;-67
2022/12/13 12:29:33;;;;;;;;;;;7.90;99.90;;;;;;4878821;29;20065;-66
2022/12/13 12:32:18;;;;;;;9.88;7.03;;;8.00;99.90;;;;;;4878620;29;20407;-63
2022/12/13 12:34:57;;;;;;;10.68;6.07;;;8.20;99.90;;;;;;4878252;29;20069;-66
2022/12/13 12:37:40;;;;;;;7.53;5.30;;;8.30;99.90;;;;;;4878294;29;20052;-64
2022/12/13 12:40:46;;;;;;;9.88;6.50;;;8.10;99.90;;;;;;4877784;29;20092;-65
2022/12/13 12:43:31;;;;;;;11.88;6.85;;;8.20;99.90;;;;;;4878408;29;20575;-64
2022/12/13 12:46:30;;;;;;;9.82;6.85;;;8.10;99.90;;;;;;4878259;29;20029;-64
2022/12/13 12:49:46;;;;;;;8.77;7.07;;;8.10;99.90;;;;;;4841990;29;20068;-65
2022/12/13 12:52:31;;;;;;;13.30;8.85;;;8.10;99.90;;;;;;4840881;29;20062;-64
2022/12/13 12:55:13;;;;;;;12.85;8.15;;;8.20;99.90;;;;;;4853416;29;20033;-64
2022/12/13 12:57:48;;;;;;;8.70;5.85;;;8.30;99.90;;;;;;4878311;29;20187;-64
2022/12/13 13:00:21;;;;;;;7.95;5.68;;;8.30;99.90;;;;;;4877987;29;20056;-64
2022/12/13 13:03:22;;;;;;;9.75;6.15;;;8.30;99.90;;;;;;4878067;29;20033;-64
2022/12/13 13:06:10;;;;;;;7.10;5.28;;;8.40;99.90;;;;;;4877795;29;20041;-64
2022/12/13 13:08:46;;;;;;;8.30;6.07;;;8.50;99.90;;;;;;4877891;29;20108;-63
2022/12/13 13:11:12;;;;;;;6.90;5.22;;;8.50;99.90;;;;;;4877771;29;20033;-64
2022/12/13 13:13:56;;;;;;;6.00;4.72;;;8.50;99.90;;;;;;4878368;29;20100;-63
2022/12/13 13:16:39;;;;;;;7.95;5.20;;;8.50;99.90;;;;;;4877945;29;20048;-63
2022/12/13 13:19:30;;;;;;;7.70;5.43;;;8.50;99.90;;;;;;4877561;29;20052;-63
2022/12/13 13:21:57;;;;;;;6.75;5.30;;;8.50;99.90;;;;;;4877273;29;20146;-63
2022/12/13 13:24:28;;;;;;;8.70;5.47;;;8.50;99.90;;;;;;4877881;29;20554;-64
2022/12/13 13:26:58;;;;;;;6.82;4.90;;;8.70;99.90;;;;;;4909894;29;20039;-63
2022/12/13 13:29:23;;;;;;;6.95;5.22;;;8.40;99.90;;;;;;4971559;28;20034;-63
2022/12/13 13:32:24;;;;;;;7.70;5.07;;;8.50;99.90;;;;;;4974629;28;20522;-64
2022/12/13 13:34:52;;;;;;;8.50;4.90;;;8.60;99.90;;;;;;4974844;28;20447;-64
2022/12/13 13:37:20;;;;;;;8.55;5.93;;;8.50;99.90;;;;;;4974395;28;20027;-63
2022/12/13 13:39:58;;;;;;;9.10;6.03;;;8.80;99.90;;;;;;4974426;28;20043;-64
2022/12/13 13:42:24;;;;;;;7.85;4.57;;;8.80;99.90;;;;;;4974534;28;20030;-63
2022/12/13 13:44:50;;;;;;;4.85;4.30;;;9.00;99.90;;;;;;4974573;28;20039;-63
2022/12/13 13:47:18;;;;;;;6.53;4.75;;;8.90;99.90;;;;;;4974198;28;20102;-63
2022/12/13 13:50:02;;;;;;;5.90;4.75;;;9.00;99.90;;;;;;4974042;28;20387;-63
2022/12/13 13:53:05;;;;;;;6.90;4.60;;;8.90;99.90;;;;;;4974107;28;20396;-63
2022/12/13 13:55:43;;;;;;;6.78;4.55;;;9.00;99.90;;;;;;4961328;28;20066;-64
2022/12/13 13:58:21;;;;;;;6.20;4.97;;;8.80;99.90;;;;;;4974410;28;20042;-63
2022/12/13 14:01:24;;;;;;;6.47;4.47;;;8.70;99.90;;;;;;4974145;28;20037;-63
2022/12/13 14:04:20;;;;;;;6.80;5.65;;;8.70;99.90;;;;;;4973910;28;20082;-64
2022/12/13 14:07:17;;;;;;;10.85;6.25;;;8.80;99.90;;;;;;4973975;28;20034;-63
2022/12/13 14:09:58;;;;;;;9.77;5.88;;;8.90;99.90;;;;;;4973937;28;20034;-63
2022/12/13 14:12:30;;;;;;;8.57;5.15;;;9.00;99.90;;;;;;4974060;28;20098;-63
2022/12/13 14:15:33;;;;;;;7.10;4.70;;;9.00;99.90;;;;;;4974325;28;20023;-63
2022/12/13 14:18:11;;;;;;;9.05;5.28;;;9.00;99.90;;;;;;4974184;28;20039;-63
2022/12/13 14:21:16;;;;;;;7.95;5.60;;;8.90;99.90;;;;;;4973457;28;20038;-63
2022/12/13 14:24:06;;;;;;;8.32;5.72;;;8.90;99.90;;;;;;4914290;29;20036;-63
2022/12/13 14:26:34;;;;;;;9.35;5.63;;;9.00;99.90;;;;;;4913978;29;20048;-63
2022/12/13 14:29:08;;;;;;;12.05;5.82;;;9.00;99.90;;;;;;4916736;29;20488;-63
2022/12/13 14:31:43;;;;;;;10.52;6.65;;;8.70;99.90;;;;;;4913971;29;20051;-63
2022/12/13 14:34:27;;;;;;;12.23;6.93;;;8.70;99.90;;;;;;4914015;29;20028;-63
2022/12/13 14:37:01;;;;;;;11.00;7.32;;;8.70;99.90;;;;;;4914026;29;20032;-63
2022/12/13 14:39:29;;;;;;;11.48;7.50;;;8.70;99.90;;;;;;4913863;29;20048;-63
2022/12/13 14:41:57;;;;;;;11.07;6.50;;;8.70;99.90;;;;;;4913836;29;20092;-63
2022/12/13 14:44:32;;;;;;;9.05;6.70;;;8.80;99.90;;;;;;4913730;29;20036;-63
2022/12/13 14:47:00;;;;;;;11.80;7.18;;;8.90;99.90;;;;;;4913756;29;20485;-63
2022/12/13 14:49:29;;;;;;;11.45;7.28;;;9.00;99.90;;;;;;4913497;29;20052;-63
2022/12/13 14:52:04;;;;;;;11.88;6.55;;;9.00;99.90;;;;;;4913888;29;20051;-63
2022/12/13 14:54:46;;;;;;;9.65;6.55;;;8.90;99.90;;;;;;4914194;29;20032;-63
2022/12/13 14:57:18;;;;;;;10.52;6.35;;;8.80;99.90;;;;;;4933991;28;20027;-63
2022/12/13 14:59:48;;;;;;;11.30;6.80;;;8.70;99.90;;;;;;4973208;28;20046;-63
2022/12/13 15:02:16;;;;;;;9.90;6.30;;;8.70;99.90;;;;;;4972913;28;20451;-63
2022/12/13 15:04:42;;;;;;;9.55;6.65;;;8.90;99.90;;;;;;4973032;28;20023;-64
2022/12/13 15:07:26;;;;;;;10.38;6.78;;;8.80;99.90;;;;;;4973296;28;20035;-64
2022/12/13 15:10:05;;;;;;;12.07;7.82;;;8.90;99.90;;;;;;4973165;28;20050;-63
2022/12/13 15:12:31;;;;;;;13.38;7.35;;;8.70;99.90;;;;;;4973163;28;20031;-63
2022/12/13 15:15:06;;;;;;;11.68;7.97;;;8.60;99.90;;;;;;4973473;28;20035;-64
2022/12/13 15:17:38;;;;;;;8.93;7.38;;;8.60;99.90;;;;;;4973024;28;20041;-63
2022/12/13 15:20:24;;;;;;;11.00;7.20;;;8.70;99.90;;;;;;4972949;28;20045;-63
2022/12/13 15:22:57;;;;;;;9.10;6.88;;;8.80;99.90;;;;;;4972970;28;20051;-63
2022/12/13 15:25:23;;;;;;;10.07;7.07;;;8.70;99.90;;;;;;4973011;28;20054;-63
2022/12/13 15:27:51;;;;;;;9.35;6.70;;;8.60;99.90;;;;;;4975901;28;20442;-63
2022/12/13 15:30:17;;;;;;;8.85;7.63;;;8.60;99.90;;;;;;4973189;28;20034;-63
2022/12/13 15:33:21;;;;;;;9.73;7.30;;;8.50;99.90;;;;;;4972774;28;20038;-63
2022/12/13 15:35:48;;;;;;;;;;;8.60;99.90;;;;;;4972867;28;20059;-64
2022/12/13 15:38:19;;;;;;;10.77;7.53;;;8.60;99.90;;;;;;4972714;28;20295;-64
2022/12/13 15:40:49;;;;;;;11.73;8.40;;;8.50;99.90;;;;;;4973401;28;20033;-64
2022/12/13 15:43:20;;;;;;;12.52;7.65;;;8.50;99.90;;;;;;4971844;28;20034;-63
2022/12/13 15:45:48;;;;;;;11.40;8.05;;;8.50;99.90;;;;;;4972448;28;20110;-64
2022/12/13 15:48:28;;;;;;;11.98;9.60;;;8.50;99.90;;;;;;4972935;28;20038;-64
2022/12/13 15:51:14;;;;;;;11.98;10.18;;;8.40;99.90;;;;;;4972950;28;20031;-64
2022/12/13 15:54:00;;;;;;;13.73;10.13;;;8.40;99.90;;;;;;4972862;28;20479;-64
2022/12/13 15:56:34;;;;;;;12.93;10.85;;;8.40;99.90;;;;;;4973052;28;20019;-63
2022/12/13 15:59:03;;;;;;;15.15;11.05;;;8.40;99.90;;;;;;4972788;28;20043;-64
2022/12/13 16:01:32;;;;;;;14.63;10.30;;;8.40;99.90;;;;;;4972891;28;20030;-63
2022/12/13 16:03:58;;;;;;;12.73;11.10;;;8.30;99.90;;;;;;4972834;28;20019;-63
2022/12/13 16:06:25;;;;;;;16.10;12.02;;;8.30;99.90;;;;;;4972955;28;20110;-64
2022/12/13 16:08:55;;;;;;;15.05;11.05;;;8.30;99.90;;;;;;4972834;28;20091;-63
2022/12/13 16:11:45;;;;;;;13.98;10.70;;;8.30;99.90;;;;;;4972635;28;20030;-63
2022/12/13 16:14:29;;;;;;;17.00;12.30;;;8.30;99.90;;;;;;4972702;28;20023;-63
2022/12/13 16:17:13;;;;;;;18.63;13.00;;;8.20;99.90;;;;;;4975756;28;20483;-63
2022/12/13 16:19:38;;;;;;;21.73;16.50;;;8.20;99.90;;;;;;4976077;28;20042;-63
2022/12/13 16:22:04;;;;;;;23.92;16.48;;;8.20;99.90;;;;;;4976290;28;20031;-64
2022/12/13 16:24:30;;;;;;;24.40;16.33;;;8.20;99.90;;;;;;4975783;28;20435;-64
2022/12/13 16:26:56;;;;;;;27.88;15.60;;;8.10;99.90;;;;;;4974825;28;20023;-64
2022/12/13 16:29:21;;;;;;;34.95;16.73;;;8.10;99.90;;;;;;4978206;28;20042;-64
2022/12/13 16:31:48;;;;;;;29.98;19.48;;;8.10;99.90;;;;;;4975784;28;20098;-63
2022/12/13 16:34:16;;;;;;;53.45;20.48;;;8.10;99.90;;;;;;4976053;28;20027;-64
2022/12/13 16:36:44;;;;;;;43.47;21.30;;;8.10;99.90;;;;;;4975714;28;20027;-64
2022/12/13 16:39:10;;;;;;;45.88;21.67;;;8.10;99.90;;;;;;4975749;28;20125;-63
2022/12/13 16:41:38;;;;;;;37.33;22.63;;;8.00;99.90;;;;;;4976032;28;20081;-64
2022/12/13 16:44:07;;;;;;;43.95;20.90;;;8.00;99.90;;;;;;4975181;28;20042;-64
2022/12/13 16:46:33;;;;;;;53.42;22.20;;;8.10;99.90;;;;;;4975449;28;20023;-64
2022/12/13 16:49:04;;;;;;;48.85;23.42;;;8.00;99.90;;;;;;4975616;28;20415;-63
2022/12/13 16:51:30;;;;;;;73.55;24.13;;;8.00;99.90;;;;;;4975612;28;20031;-64
2022/12/13 16:53:55;;;;;;;60.70;27.55;;;8.00;99.90;;;;;;4975441;28;20034;-63
2022/12/13 16:56:21;;;;;;;97.30;29.27;;;8.00;99.90;;;;;;4975786;28;20037;-63
2022/12/13 16:58:48;;;;;;;99.90;29.80;;;8.00;99.90;;;;;;4974915;28;20085;-64
2022/12/13 17:01:16;;;;;;;80.75;29.13;;;8.00;99.90;;;;;;4975145;28;20027;-64
2022/12/13 17:03:42;;;;;;;103.03;30.33;;;8.00;99.90;;;;;;4975626;28;20153;-64
2022/12/13 17:06:09;;;;;;;102.88;31.58;;;8.00;99.90;;;;;;4975286;28;20097;-63
2022/12/13 17:08:35;;;;;;;96.25;30.80;;;8.00;99.90;;;;;;4975149;28;20418;-63
2022/12/13 17:11:01;;;;;;;115.90;30.25;;;8.00;99.90;;;;;;4975189;28;20600;-64
2022/12/13 17:13:27;;;;;;;98.57;32.28;;;8.00;99.90;;;;;;4974737;28;20063;-63
2022/12/13 17:15:53;;;;;;;105.95;31.45;;;8.00;99.90;;;;;;4975127;28;20053;-65
2022/12/13 17:18:19;;;;;;;86.90;32.72;;;8.00;99.90;;;;;;4975281;28;20030;-63
2022/12/13 17:20:46;;;;;;;124.35;51.00;;;8.00;99.90;;;;;;4974876;28;20023;-64
2022/12/13 17:23:13;;;;;;;125.20;54.13;;;8.00;99.90;;;;;;4974698;28;20053;-63
2022/12/13 17:25:39;;;;;;;114.95;48.88;;;8.00;99.90;;;;;;4974927;28;20061;-64
2022/12/13 17:28:06;;;;;;;107.22;40.90;;;8.00;99.90;;;;;;4976403;28;20106;-64
2022/12/13 17:30:34;;;;;;;114.07;40.75;;;8.00;99.90;;;;;;4974612;28;20035;-64
2022/12/13 17:33:05;;;;;;;91.45;38.95;;;8.00;99.90;;;;;;4974922;28;20041;-64
2022/12/13 17:35:31;;;;;;;91.80;34.72;;;8.00;99.90;;;;;;4974957;28;20035;-63
2022/12/13 17:37:57;;;;;;;114.15;41.63;;;8.00;99.90;;;;;;4974545;28;20412;-64
2022/12/13 17:40:22;;;;;;;144.00;54.55;;;8.00;99.90;;;;;;4974410;28;20046;-64
2022/12/13 17:42:50;;;;;;;95.57;42.85;;;8.00;99.90;;;;;;4974073;28;20061;-63
2022/12/13 17:45:18;;;;;;;112.47;45.25;;;8.00;99.90;;;;;;4974340;28;20031;-63
2022/12/13 17:47:47;;;;;;;109.97;43.08;;;8.00;99.90;;;;;;4974361;28;20468;-64
2022/12/13 17:50:14;;;;;;;121.13;47.67;;;8.00;99.90;;;;;;4974218;28;20105;-63
2022/12/13 17:52:40;;;;;;;155.52;79.38;;;8.00;99.90;;;;;;4974363;28;20058;-63
2022/12/13 17:55:07;;;;;;;121.38;56.47;;;8.00;99.90;;;;;;4974653;28;20035;-64
2022/12/13 17:57:33;;;;;;;71.97;43.60;;;8.00;99.90;;;;;;4973905;28;20058;-64
2022/12/13 17:59:59;;;;;;;62.38;38.08;;;8.00;99.90;;;;;;4974118;28;20058;-64
2022/12/13 18:02:25;;;;;;;109.47;48.35;;;8.10;99.90;;;;;;4974227;28;20023;-63
2022/12/13 18:04:51;;;;;;;89.68;40.58;;;8.10;99.90;;;;;;4974025;28;20026;-64
2022/12/13 18:07:17;;;;;;;92.50;41.47;;;8.10;99.90;;;;;;4974069;28;20031;-63
2022/12/13 18:09:43;;;;;;;105.63;45.88;;;8.10;99.90;;;;;;4973998;28;20037;-64
2022/12/13 18:12:09;;;;;;;92.60;35.03;;;8.10;99.90;;;;;;4973591;28;20022;-63
2022/12/13 18:14:35;;;;;;;92.75;41.17;;;8.10;99.90;;;;;;4974281;28;20387;-63
2022/12/13 18:17:01;;;;;;;79.68;37.58;;;8.10;99.90;;;;;;4972540;28;20505;-63
2022/12/13 18:19:30;;;;;;;57.30;32.85;;;8.10;99.90;;;;;;4973849;28;20143;-63
2022/12/13 18:21:57;;;;;;;87.32;36.97;;;8.20;99.90;;;;;;4973815;28;20042;-64
2022/12/13 18:24:24;;;;;;;68.85;37.63;;;8.20;99.90;;;;;;4972421;28;20108;-63
2022/12/13 18:26:50;;;;;;;91.50;34.92;;;8.20;99.90;;;;;;4973467;28;20073;-63
2022/12/13 18:29:17;;;;;;;84.00;49.80;;;8.10;99.90;;;;;;4976717;28;20030;-64
2022/12/13 18:31:43;;;;;;;121.40;57.28;;;8.20;99.90;;;;;;4973639;28;20034;-63
2022/12/13 18:34:09;;;;;;;140.65;48.38;;;8.20;99.90;;;;;;4973507;28;20058;-64
2022/12/13 18:36:35;;;;;;;97.50;43.30;;;8.10;99.90;;;;;;4973585;28;20050;-64
2022/12/13 18:39:02;;;;;;;110.47;41.42;;;8.20;99.90;;;;;;4972611;28;20054;-64
2022/12/13 18:41:29;;;;;;;111.82;40.60;;;8.10;99.90;;;;;;4973280;28;20078;-65
2022/12/13 18:43:57;;;;;;;80.70;38.67;;;8.10;99.90;;;;;;4973430;28;20034;-64
2022/12/13 18:46:22;;;;;;;110.78;40.28;;;8.20;99.90;;;;;;4973403;28;20113;-64
2022/12/13 18:48:48;;;;;;;109.72;48.40;;;8.20;99.90;;;;;;4973429;28;20118;-65
2022/12/13 18:51:14;;;;;;;86.72;34.03;;;8.20;99.90;;;;;;4973768;28;20022;-64
2022/12/13 18:53:40;;;;;;;78.53;36.20;;;8.20;99.90;;;;;;4973299;28;20027;-64
2022/12/13 18:56:09;;;;;;;89.25;37.58;;;8.20;99.90;;;;;;4972972;28;20435;-64
2022/12/13 18:58:35;;;;;;;121.35;42.90;;;8.20;99.90;;;;;;4973145;28;20412;-63
2022/12/13 19:01:02;;;;;;;76.05;35.05;;;8.20;99.90;;;;;;4973392;28;20050;-63
2022/12/13 19:03:28;;;;;;;73.93;34.60;;;8.20;99.90;;;;;;4973246;28;20037;-63
2022/12/13 19:05:58;;;;;;;84.93;39.75;;;8.20;99.90;;;;;;4973138;28;20023;-63
2022/12/13 19:08:25;;;;;;;79.18;36.78;;;8.20;99.90;;;;;;4973328;28;20051;-63
2022/12/13 19:10:56;;;;;;;94.60;42.25;;;8.20;99.90;;;;;;4971948;28;20097;-63
2022/12/13 19:13:23;;;;;;;120.30;45.45;;;8.20;99.90;;;;;;4973033;28;20472;-64
2022/12/13 19:15:51;;;;;;;99.78;40.47;;;8.20;99.90;;;;;;4973171;28;20023;-63
2022/12/13 19:18:17;;;;;;;70.75;32.75;;;8.20;99.90;;;;;;4973187;28;20019;-63
2022/12/13 19:20:47;;;;;;;100.22;35.33;;;8.20;99.90;;;;;;4972875;28;20035;-64
2022/12/13 19:23:14;;;;;;;74.97;29.40;;;8.20;99.90;;;;;;4973016;28;20098;-64
2022/12/13 19:25:40;;;;;;;92.07;37.65;;;8.20;99.90;;;;;;4972847;28;20047;-63
2022/12/13 19:28:06;;;;;;;90.57;32.90;;;8.30;99.90;;;;;;4975724;28;20027;-63
2022/12/13 19:30:31;;;;;;;112.20;39.20;;;8.30;99.90;;;;;;4972998;28;20415;-64
2022/12/13 19:32:57;;;;;;;71.97;34.65;;;8.30;99.90;;;;;;4971852;28;20476;-63
2022/12/13 19:35:23;;;;;;;76.43;32.50;;;8.30;99.90;;;;;;4972692;28;20030;-65
2022/12/13 19:37:48;;;;;;;77.20;29.45;;;8.30;99.90;;;;;;4973031;28;20042;-65
2022/12/13 19:40:14;;;;;;;78.38;35.25;;;8.30;99.90;;;;;;4971718;28;20034;-62
2022/12/13 19:42:40;;;;;;;89.28;39.78;;;8.30;99.90;;;;;;4971866;28;20082;-63
2022/12/13 19:45:06;;;;;;;88.32;37.72;;;8.30;99.90;;;;;;4971812;28;20041;-61
2022/12/13 19:47:32;;;;;;;96.18;45.72;;;8.30;99.90;;;;;;4972523;28;20090;-63
2022/12/13 19:49:58;;;;;;;77.82;38.05;;;8.30;99.90;;;;;;4972813;28;20063;-63
2022/12/13 19:52:24;;;;;;;90.60;37.80;;;8.30;99.90;;;;;;4976229;28;20054;-63
2022/12/13 19:54:49;;;;;;;100.55;44.42;;;8.30;99.90;;;;;;4976395;28;20030;-64
2022/12/13 19:57:15;;;;;;;83.40;40.17;;;8.30;99.90;;;;;;4975756;28;20042;-63
2022/12/13 19:59:41;;;;;;;92.07;35.92;;;8.30;99.90;;;;;;4976181;28;20034;-63
2022/12/13 20:02:08;;;;;;;91.20;38.75;;;8.30;99.90;;;;;;4976351;28;20023;-64
2022/12/13 20:04:33;;;;;;;68.95;35.10;;;8.30;99.90;;;;;;4975026;28;20452;-64
2022/12/13 20:06:59;;;;;;;118.90;43.38;;;8.30;99.90;;;;;;4976029;28;20035;-63
2022/12/13 20:09:25;;;;;;;91.43;36.20;;;8.30;99.90;;;;;;4976400;28;20054;-64
2022/12/13 20:11:50;;;;;;;117.00;42.50;;;8.30;99.90;;;;;;4976183;28;20023;-64
2022/12/13 20:14:16;;;;;;;92.43;37.08;;;8.30;99.90;;;;;;4975947;28;20030;-64
2022/12/13 20:16:42;;;;;;;68.95;31.45;;;8.30;99.90;;;;;;4976439;28;20444;-62
2022/12/13 20:19:09;;;;;;;74.03;29.70;;;8.30;99.90;;;;;;4975680;28;20030;-65
2022/12/13 20:21:35;;;;;;;66.35;27.60;;;8.30;99.90;;;;;;4975823;28;20031;-63
2022/12/13 20:24:01;;;;;;;70.35;29.58;;;8.30;99.90;;;;;;4976124;28;20037;-64
2022/12/13 20:26:30;;;;;;;83.53;29.63;;;8.30;99.90;;;;;;4975768;28;20054;-63
2022/12/13 20:28:56;;;;;;;88.05;34.65;;;8.30;99.90;;;;;;4978688;28;20379;-62
2022/12/13 20:31:29;;;;;;;67.30;33.28;;;8.30;99.90;;;;;;4975942;28;20027;-65
2022/12/13 20:33:56;;;;;;;65.63;30.90;;;8.30;99.90;;;;;;4975488;28;20102;-64
2022/12/13 20:36:22;;;;;;;89.85;37.28;;;8.30;99.90;;;;;;4975228;28;20043;-64
2022/12/13 20:38:47;;;;;;;73.25;37.78;;;8.30;99.90;;;;;;4975270;28;20105;-64
2022/12/13 20:41:13;;;;;;;49.92;30.02;;;8.30;99.90;;;;;;4975400;28;20110;-64
2022/12/13 20:43:41;;;;;;;80.05;39.00;;;8.30;99.90;;;;;;4975532;28;20023;-63
2022/12/13 20:46:11;;;;;;;86.45;42.97;;;8.30;99.90;;;;;;4975149;28;20081;-64
2022/12/13 20:48:42;;;;;;;112.15;50.28;;;8.30;99.90;;;;;;4975132;28;20051;-64
2022/12/13 20:51:10;;;;;;;82.65;41.63;;;8.30;99.90;;;;;;4974929;28;20034;-63
2022/12/13 20:53:39;;;;;;;76.07;40.75;;;8.30;99.90;;;;;;4975181;28;20023;-63
2022/12/13 20:56:07;;;;;;;88.05;43.15;;;8.30;99.90;;;;;;4975000;28;20062;-62
2022/12/13 20:58:33;;;;;;;116.05;53.15;;;8.40;99.90;;;;;;4975601;28;20101;-61
2022/12/13 21:01:00;;;;;;;112.30;51.42;;;8.30;99.90;;;;;;4975292;28;20030;-62
2022/12/13 21:03:26;;;;;;;124.85;48.65;;;8.30;99.90;;;;;;4974408;28;20022;-62
2022/12/13 21:05:52;;;;;;;85.38;43.30;;;8.30;99.90;;;;;;4975343;28;20023;-61
2022/12/13 21:13:47;;;;;;;70.88;45.63;;;8.40;99.90;;;;;;4975364;28;20089;-62
2022/12/13 21:16:13;;;;;;;109.47;77.85;;;8.40;99.90;;;;;;4975113;28;20030;-61
2022/12/13 21:18:39;;;;;;;131.40;103.07;;;8.40;99.90;;;;;;4974902;28;20035;-62
2022/12/13 21:21:05;;;;;;;154.95;96.20;;;8.40;99.90;;;;;;4974960;28;20031;-61
2022/12/13 21:23:31;;;;;;;96.00;72.40;;;8.40;99.90;;;;;;4974892;28;20027;-62
2022/12/13 21:25:57;;;;;;;178.80;98.82;;;8.50;99.90;;;;;;4974658;28;20126;-62
2022/12/13 21:28:23;;;;;;;203.85;131.30;;;8.40;99.90;;;;;;4977491;28;20396;-63
2022/12/13 21:30:56;;;;;;;226.23;121.38;;;8.40;99.90;;;;;;4974709;28;20487;-62
2022/12/13 21:33:22;;;;;;;156.07;95.75;;;8.40;99.90;;;;;;4974875;28;20034;-62
2022/12/13 21:35:47;;;;;;;99.70;61.83;;;8.40;99.90;;;;;;4974353;28;20033;-61
2022/12/13 21:38:13;;;;;;;77.55;46.47;;;8.40;99.90;;;;;;4974692;28;20037;-62
2022/12/13 21:40:46;;;;;;;59.80;39.63;;;8.40;99.90;;;;;;4974446;28;20062;-62
2022/12/13 21:43:12;;;;;;;59.33;37.50;;;8.50;99.90;;;;;;4974516;28;20487;-62
2022/12/13 21:45:39;;;;;;;68.55;45.05;;;8.50;99.90;;;;;;4974798;28;20139;-62
2022/12/13 21:48:04;;;;;;;50.67;40.40;;;8.50;99.90;;;;;;4973944;28;20033;-62
2022/12/13 21:50:30;;;;;;;83.47;53.80;;;8.50;99.90;;;;;;4974493;28;20101;-62
2022/12/13 21:52:56;;;;;;;74.45;52.28;;;8.50;99.90;;;;;;4974252;28;20040;-63
2022/12/13 21:55:21;;;;;;;78.45;56.33;;;8.50;99.90;;;;;;4974175;28;20034;-62
2022/12/13 22:00:35;;;;;;;;;;;8.40;99.90;;;;;;4974646;28;20042;-62
2022/12/13 22:03:00;;;;;;;68.88;51.00;;;8.40;99.90;;;;;;4973898;28;20034;-62
2022/12/13 22:05:26;;;;;;;76.13;54.13;;;8.40;99.90;;;;;;4974184;28;20071;-64
2022/12/13 22:07:52;;;;;;;86.50;58.25;;;8.50;99.90;;;;;;4974007;28;20479;-63
2022/12/13 22:10:17;;;;;;;68.13;48.10;;;8.40;99.90;;;;;;4974121;28;20023;-62
2022/12/13 22:12:43;;;;;;;84.13;56.28;;;8.40;99.90;;;;;;4974156;28;20058;-62
2022/12/13 22:15:14;;;;;;;98.07;58.50;;;8.40;99.90;;;;;;4972456;28;20125;-62
2022/12/13 22:17:41;;;;;;;101.70;60.33;;;8.40;99.90;;;;;;4973641;28;20098;-63
2022/12/13 22:20:09;;;;;;;91.60;56.35;;;8.50;99.90;;;;;;4973776;28;20046;-63
2022/12/13 22:22:37;;;;;;;86.00;53.72;;;8.40;99.90;;;;;;4973852;28;20102;-62
2022/12/13 22:25:04;;;;;;;88.22;54.35;;;8.50;99.90;;;;;;4973405;28;20526;-63
2022/12/13 22:27:30;;;;;;;75.32;49.28;;;8.50;99.90;;;;;;4973432;28;20046;-63
2022/12/13 22:29:56;;;;;;;65.40;45.13;;;8.50;99.90;;;;;;4973929;28;20027;-62
2022/12/13 22:32:23;;;;;;;87.13;52.88;;;8.50;99.90;;;;;;4973460;28;20023;-63
2022/12/13 22:34:49;;;;;;;98.47;53.58;;;8.50;99.90;;;;;;4973491;28;20027;-64
2022/12/13 22:37:15;;;;;;;84.50;53.88;;;8.40;99.90;;;;;;4973083;28;20027;-64
2022/12/13 22:39:40;;;;;;;86.45;53.33;;;8.40;99.90;;;;;;4973542;28;20037;-64
2022/12/13 22:42:06;;;;;;;88.53;55.53;;;8.50;99.90;;;;;;4973270;28;20023;-62
2022/12/13 22:44:32;;;;;;;56.08;41.47;;;8.40;99.90;;;;;;4973548;28;20130;-62
2022/12/13 22:46:58;;;;;;;57.58;44.85;;;8.40;99.90;;;;;;4972692;28;20115;-63
2022/12/13 22:49:24;;;;;;;72.18;51.20;;;8.50;99.90;;;;;;4973019;28;20488;-63
2022/12/13 22:51:49;;;;;;;112.93;67.88;;;8.50;99.90;;;;;;4973746;28;20051;-64
2022/12/13 22:54:15;;;;;;;132.70;79.35;;;8.40;99.90;;;;;;4973450;28;20372;-64
2022/12/13 22:56:41;;;;;;;142.13;83.90;;;8.40;99.90;;;;;;4973304;28;20492;-63
2022/12/13 22:59:07;;;;;;;95.93;68.68;;;8.40;99.90;;;;;;4973002;28;20400;-64
2022/12/13 23:01:36;;;;;;;103.43;71.93;;;8.50;99.90;;;;;;4972779;28;20027;-63
2022/12/13 23:04:02;;;;;;;108.45;70.75;;;8.50;99.90;;;;;;4973977;28;20027;-64
2022/12/13 23:06:30;;;;;;;98.00;66.90;;;8.50;99.90;;;;;;4973247;28;20034;-64
2022/12/13 23:09:01;;;;;;;96.70;68.43;;;8.50;99.90;;;;;;4973276;28;20027;-64
2022/12/13 23:14:15;;;;;;;120.32;79.50;;;8.60;99.90;;;;;;4973294;28;20085;-63
2022/12/13 23:16:41;;;;;;;107.53;76.25;;;8.60;99.90;;;;;;4971552;28;20027;-63
2022/12/13 23:19:10;;;;;;;121.25;80.75;;;8.60;99.90;;;;;;4973433;28;20023;-63
2022/12/13 23:21:36;;;;;;;98.78;68.95;;;8.60;99.90;;;;;;4973380;28;20540;-63
2022/12/13 23:24:03;;;;;;;171.57;115.25;;;8.60;99.90;;;;;;4972954;28;20101;-62
2022/12/13 23:26:31;;;;;;;125.85;89.75;;;8.70;99.90;;;;;;4975798;28;20074;-63
2022/12/13 23:29:00;;;;;;;108.00;76.40;;;8.70;99.90;;;;;;4980122;28;20033;-63
2022/12/13 23:31:28;;;;;;;94.55;66.75;;;8.60;99.90;;;;;;4976611;28;20023;-63
2022/12/13 23:33:54;;;;;;;98.80;69.10;;;8.60;99.90;;;;;;4976857;28;20023;-63
2022/12/13 23:36:22;;;;;;;97.35;66.63;;;8.60;99.90;;;;;;4976902;28;20098;-63
2022/12/13 23:38:48;;;;;;;79.53;59.50;;;8.70;99.90;;;;;;4976721;28;20071;-63
2022/12/13 23:41:24;;;;;;;79.85;59.20;;;8.70;99.90;;;;;;4976782;28;20039;-63
2022/12/13 23:43:52;;;;;;;81.95;64.88;;;8.70;99.90;;;;;;4976834;28;20047;-63